sensor_id;sensor_type;location;lat;lon;timestamp;temperature;humidity
38118;DHT22;23928;47.562;7.508;2023-01-29T00:01:40;1.00;99.90
38118;DHT22;23928;47.562;7.508;2023-01-29T00:04:06;1.00;99.90
38118;DHT22;23928;47.562;7.508;2023-01-29T00:06:32;0.90;99.90
38118;DHT22;23928;47.562;7.508;2023-01-29T00:08:57;1.00;99.90
38118;DHT22;23928;47.562;7.508;2023-01-29T00:11:23;1.00;99.90
38118;DHT22;23928;47.562;7.508;2023-01-29T00:13:50;1.00;99.90
38118;DHT22;23928;47.562;7.508;2023-01-29T00:16:16;1.00;99.90
38118;DHT22;23928;47.562;7.508;2023-01-29T00:18:42;1.00;99.90
38118;DHT22;23928;47.562;7.508;2023-01-29T00:21:15;1.00;99.90
38118;DHT22;23928;47.562;7.508;2023-01-29T00:23:41;1.00;99.90
38118;DHT22;23928;47.562;7.508;2023-01-29T00:26:07;1.00;99.90
38118;DHT22;23928;47.562;7.508;2023-01-29T00:28:34;1.00;99.90
38118;DHT22;23928;47.562;7.508;2023-01-29T00:31:06;1.00;99.90
38118;DHT22;23928;47.562;7.508;2023-01-29T00:33:32;1.10;99.90
38118;DHT22;23928;47.562;7.508;2023-01-29T00:36:01;1.20;99.90
38118;DHT22;23928;47.562;7.508;2023-01-29T00:38:27;1.10;99.90
38118;DHT22;23928;47.562;7.508;2023-01-29T00:40:52;1.10;99.90
38118;DHT22;23928;47.562;7.508;2023-01-29T00:43:37;1.10;99.90
38118;DHT22;23928;47.562;7.508;2023-01-29T00:46:26;1.20;99.90
38118;DHT22;23928;47.562;7.508;2023-01-29T00:48:51;1.00;99.90
38118;DHT22;23928;47.562;7.508;2023-01-29T00:51:17;1.00;99.90
38118;DHT22;23928;47.562;7.508;2023-01-29T00:53:42;0.90;99.90
38118;DHT22;23928;47.562;7.508;2023-01-29T00:56:08;0.90;99.90
38118;DHT22;23928;47.562;7.508;2023-01-29T00:58:33;0.80;99.90
38118;DHT22;23928;47.562;7.508;2023-01-29T01:01:00;0.80;99.90
38118;DHT22;23928;47.562;7.508;2023-01-29T01:03:27;0.80;99.90
38118;DHT22;23928;47.562;7.508;2023-01-29T01:06:11;0.90;99.90
38118;DHT22;23928;47.562;7.508;2023-01-29T01:08:36;0.80;99.90
38118;DHT22;23928;47.562;7.508;2023-01-29T01:11:20;0.80;99.90
38118;DHT22;23928;47.562;7.508;2023-01-29T01:13:46;0.90;99.90
38118;DHT22;23928;47.562;7.508;2023-01-29T01:16:14;0.80;99.90
38118;DHT22;23928;47.562;7.508;2023-01-29T01:18:42;0.70;99.90
38118;DHT22;23928;47.562;7.508;2023-01-29T01:21:07;0.70;99.90
38118;DHT22;23928;47.562;7.508;2023-01-29T01:23:33;0.80;99.90
38118;DHT22;23928;47.562;7.508;2023-01-29T01:25:59;0.80;99.90
38118;DHT22;23928;47.562;7.508;2023-01-29T01:28:26;0.80;99.90
38118;DHT22;23928;47.562;7.508;2023-01-29T01:30:51;0.90;99.90
38118;DHT22;23928;47.562;7.508;2023-01-29T01:33:17;0.80;99.90
38118;DHT22;23928;47.562;7.508;2023-01-29T01:35:43;0.80;99.90
38118;DHT22;23928;47.562;7.508;2023-01-29T01:38:08;0.80;99.90
38118;DHT22;23928;47.562;7.508;2023-01-29T01:40:34;0.80;99.90
38118;DHT22;23928;47.562;7.508;2023-01-29T01:43:00;0.80;99.90
38118;DHT22;23928;47.562;7.508;2023-01-29T01:45:31;0.80;99.90
38118;DHT22;23928;47.562;7.508;2023-01-29T01:53:02;0.70;99.90
38118;DHT22;23928;47.562;7.508;2023-01-29T01:55:30;0.90;99.90
38118;DHT22;23928;47.562;7.508;2023-01-29T01:58:04;0.80;99.90
38118;DHT22;23928;47.562;7.508;2023-01-29T02:00:31;0.80;99.90
38118;DHT22;23928;47.562;7.508;2023-01-29T02:02:57;0.70;99.90
38118;DHT22;23928;47.562;7.508;2023-01-29T02:05:41;0.70;99.90
38118;DHT22;23928;47.562;7.508;2023-01-29T02:08:34;0.80;99.90
38118;DHT22;23928;47.562;7.508;2023-01-29T02:11:20;0.80;99.90
38118;DHT22;23928;47.562;7.508;2023-01-29T02:13:46;0.80;99.90
38118;DHT22;23928;47.562;7.508;2023-01-29T02:16:19;0.90;99.90
38118;DHT22;23928;47.562;7.508;2023-01-29T02:18:45;0.70;99.90
38118;DHT22;23928;47.562;7.508;2023-01-29T02:21:58;0.70;99.90
38118;DHT22;23928;47.562;7.508;2023-01-29T02:35:27;0.80;99.90
38118;DHT22;23928;47.562;7.508;2023-01-29T02:45:45;0.90;99.90
38118;DHT22;23928;47.562;7.508;2023-01-29T02:48:21;0.80;99.90
38118;DHT22;23928;47.562;7.508;2023-01-29T02:50:56;0.70;99.90
38118;DHT22;23928;47.562;7.508;2023-01-29T02:53:37;0.80;99.90
38118;DHT22;23928;47.562;7.508;2023-01-29T02:56:09;0.70;99.90
38118;DHT22;23928;47.562;7.508;2023-01-29T02:58:41;0.60;99.90
38118;DHT22;23928;47.562;7.508;2023-01-29T03:01:16;0.60;99.90
38118;DHT22;23928;47.562;7.508;2023-01-29T03:03:50;0.60;99.90
38118;DHT22;23928;47.562;7.508;2023-01-29T03:06:17;0.50;99.90
38118;DHT22;23928;47.562;7.508;2023-01-29T03:08:54;0.60;99.90
38118;DHT22;23928;47.562;7.508;2023-01-29T03:11:21;0.50;99.90
38118;DHT22;23928;47.562;7.508;2023-01-29T03:13:56;0.50;99.90
38118;DHT22;23928;47.562;7.508;2023-01-29T03:19:15;0.40;99.90
38118;DHT22;23928;47.562;7.508;2023-01-29T03:21:56;0.50;99.90
38118;DHT22;23928;47.562;7.508;2023-01-29T03:24:43;0.40;99.90
38118;DHT22;23928;47.562;7.508;2023-01-29T03:27:36;0.30;99.90
38118;DHT22;23928;47.562;7.508;2023-01-29T03:30:24;0.40;99.90
38118;DHT22;23928;47.562;7.508;2023-01-29T03:33:10;0.50;99.90
38118;DHT22;23928;47.562;7.508;2023-01-29T03:35:40;0.50;99.90
38118;DHT22;23928;47.562;7.508;2023-01-29T03:38:09;0.50;99.90
38118;DHT22;23928;47.562;7.508;2023-01-29T03:43:44;0.30;99.90
38118;DHT22;23928;47.562;7.508;2023-01-29T03:49:01;0.30;99.90
38118;DHT22;23928;47.562;7.508;2023-01-29T03:52:10;0.40;99.90
38118;DHT22;23928;47.562;7.508;2023-01-29T03:57:14;0.20;99.90
38118;DHT22;23928;47.562;7.508;2023-01-29T04:02:29;0.20;99.90
38118;DHT22;23928;47.562;7.508;2023-01-29T04:05:02;0.10;99.90
38118;DHT22;23928;47.562;7.508;2023-01-29T04:07:29;0.30;99.90
38118;DHT22;23928;47.562;7.508;2023-01-29T04:10:06;0.20;99.90
38118;DHT22;23928;47.562;7.508;2023-01-29T04:12:51;0.00;99.90
38118;DHT22;23928;47.562;7.508;2023-01-29T04:15:20;0.10;99.90
38118;DHT22;23928;47.562;7.508;2023-01-29T04:17:51;0.10;99.90
38118;DHT22;23928;47.562;7.508;2023-01-29T04:20:18;0.00;99.90
38118;DHT22;23928;47.562;7.508;2023-01-29T04:22:47;0.20;99.90
38118;DHT22;23928;47.562;7.508;2023-01-29T04:25:22;0.20;99.90
38118;DHT22;23928;47.562;7.508;2023-01-29T04:28:06;0.00;99.90
38118;DHT22;23928;47.562;7.508;2023-01-29T04:38:46;-0.10;99.90
38118;DHT22;23928;47.562;7.508;2023-01-29T04:47:02;-0.10;99.90
38118;DHT22;23928;47.562;7.508;2023-01-29T04:49:43;0.00;99.90
38118;DHT22;23928;47.562;7.508;2023-01-29T04:52:29;0.10;99.90
38118;DHT22;23928;47.562;7.508;2023-01-29T04:55:11;0.00;99.90
38118;DHT22;23928;47.562;7.508;2023-01-29T05:00:36;0.10;99.90
38118;DHT22;23928;47.562;7.508;2023-01-29T05:03:02;0.00;99.90
38118;DHT22;23928;47.562;7.508;2023-01-29T05:05:29;0.10;99.90
38118;DHT22;23928;47.562;7.508;2023-01-29T05:07:56;0.20;99.90
38118;DHT22;23928;47.562;7.508;2023-01-29T05:10:24;0.20;99.90
38118;DHT22;23928;47.562;7.508;2023-01-29T05:13:00;0.10;99.90
38118;DHT22;23928;47.562;7.508;2023-01-29T05:15:38;0.10;99.90
38118;DHT22;23928;47.562;7.508;2023-01-29T05:18:05;0.20;99.90
38118;DHT22;23928;47.562;7.508;2023-01-29T05:20:34;0.20;99.90
38118;DHT22;23928;47.562;7.508;2023-01-29T05:23:00;0.30;99.90
38118;DHT22;23928;47.562;7.508;2023-01-29T05:25:31;0.40;99.90
38118;DHT22;23928;47.562;7.508;2023-01-29T05:27:57;0.20;99.90
38118;DHT22;23928;47.562;7.508;2023-01-29T05:30:37;0.10;99.90
38118;DHT22;23928;47.562;7.508;2023-01-29T05:33:08;0.30;99.90
38118;DHT22;23928;47.562;7.508;2023-01-29T05:35:35;0.40;99.90
38118;DHT22;23928;47.562;7.508;2023-01-29T05:38:01;0.20;99.90
38118;DHT22;23928;47.562;7.508;2023-01-29T05:40:27;0.40;99.90
38118;DHT22;23928;47.562;7.508;2023-01-29T05:42:52;0.50;99.90
38118;DHT22;23928;47.562;7.508;2023-01-29T05:45:18;0.40;99.90
38118;DHT22;23928;47.562;7.508;2023-01-29T05:47:45;0.40;99.90
38118;DHT22;23928;47.562;7.508;2023-01-29T05:50:11;0.30;99.90
38118;DHT22;23928;47.562;7.508;2023-01-29T05:52:37;0.00;99.90
38118;DHT22;23928;47.562;7.508;2023-01-29T05:55:04;0.20;99.90
38118;DHT22;23928;47.562;7.508;2023-01-29T05:57:29;0.40;99.90
38118;DHT22;23928;47.562;7.508;2023-01-29T05:59:55;0.40;99.90
38118;DHT22;23928;47.562;7.508;2023-01-29T06:02:21;0.30;99.90
38118;DHT22;23928;47.562;7.508;2023-01-29T06:04:46;0.20;99.90
38118;DHT22;23928;47.562;7.508;2023-01-29T06:07:12;0.10;99.90
38118;DHT22;23928;47.562;7.508;2023-01-29T06:09:37;0.10;99.90
38118;DHT22;23928;47.562;7.508;2023-01-29T06:12:03;0.10;99.90
38118;DHT22;23928;47.562;7.508;2023-01-29T06:14:30;0.00;99.90
38118;DHT22;23928;47.562;7.508;2023-01-29T06:16:56;0.10;99.90
38118;DHT22;23928;47.562;7.508;2023-01-29T06:19:22;0.20;99.90
38118;DHT22;23928;47.562;7.508;2023-01-29T06:21:47;0.20;99.90
38118;DHT22;23928;47.562;7.508;2023-01-29T06:24:13;0.20;99.90
38118;DHT22;23928;47.562;7.508;2023-01-29T06:26:38;0.00;99.90
38118;DHT22;23928;47.562;7.508;2023-01-29T06:29:04;0.10;99.90
38118;DHT22;23928;47.562;7.508;2023-01-29T06:31:30;0.20;99.90
38118;DHT22;23928;47.562;7.508;2023-01-29T06:33:56;0.10;99.90
38118;DHT22;23928;47.562;7.508;2023-01-29T06:36:21;0.30;99.90
38118;DHT22;23928;47.562;7.508;2023-01-29T06:38:47;0.30;99.90
38118;DHT22;23928;47.562;7.508;2023-01-29T06:41:16;0.20;99.90
38118;DHT22;23928;47.562;7.508;2023-01-29T06:43:46;0.40;99.90
38118;DHT22;23928;47.562;7.508;2023-01-29T06:46:12;0.50;99.90
38118;DHT22;23928;47.562;7.508;2023-01-29T06:48:38;0.70;99.90
38118;DHT22;23928;47.562;7.508;2023-01-29T06:51:05;0.60;99.90
38118;DHT22;23928;47.562;7.508;2023-01-29T06:53:32;0.60;99.90
38118;DHT22;23928;47.562;7.508;2023-01-29T06:55:58;0.50;99.90
38118;DHT22;23928;47.562;7.508;2023-01-29T06:58:24;0.50;99.90
38118;DHT22;23928;47.562;7.508;2023-01-29T07:00:50;0.50;99.90
38118;DHT22;23928;47.562;7.508;2023-01-29T07:03:16;0.30;99.90
38118;DHT22;23928;47.562;7.508;2023-01-29T07:05:42;0.60;99.90
38118;DHT22;23928;47.562;7.508;2023-01-29T07:08:07;0.50;99.90
38118;DHT22;23928;47.562;7.508;2023-01-29T07:10:34;0.60;99.90
38118;DHT22;23928;47.562;7.508;2023-01-29T07:13:00;0.80;99.90
38118;DHT22;23928;47.562;7.508;2023-01-29T07:15:26;0.80;99.90
38118;DHT22;23928;47.562;7.508;2023-01-29T07:18:09;0.70;99.90
38118;DHT22;23928;47.562;7.508;2023-01-29T07:20:39;0.80;99.90
38118;DHT22;23928;47.562;7.508;2023-01-29T07:23:07;0.80;99.90
38118;DHT22;23928;47.562;7.508;2023-01-29T07:25:33;0.70;99.90
38118;DHT22;23928;47.562;7.508;2023-01-29T07:28:00;0.50;99.90
38118;DHT22;23928;47.562;7.508;2023-01-29T07:30:26;0.40;99.90
38118;DHT22;23928;47.562;7.508;2023-01-29T07:32:51;0.50;99.90
38118;DHT22;23928;47.562;7.508;2023-01-29T07:35:17;0.40;99.90
38118;DHT22;23928;47.562;7.508;2023-01-29T07:37:43;0.40;99.90
38118;DHT22;23928;47.562;7.508;2023-01-29T07:40:09;0.40;99.90
38118;DHT22;23928;47.562;7.508;2023-01-29T07:42:39;0.50;99.90
38118;DHT22;23928;47.562;7.508;2023-01-29T07:45:07;0.30;99.90
38118;DHT22;23928;47.562;7.508;2023-01-29T07:47:33;0.30;99.90
38118;DHT22;23928;47.562;7.508;2023-01-29T07:49:59;0.30;99.90
38118;DHT22;23928;47.562;7.508;2023-01-29T07:52:24;0.20;99.90
38118;DHT22;23928;47.562;7.508;2023-01-29T07:54:50;0.20;99.90
38118;DHT22;23928;47.562;7.508;2023-01-29T07:57:15;0.30;99.90
38118;DHT22;23928;47.562;7.508;2023-01-29T07:59:41;0.10;99.90
38118;DHT22;23928;47.562;7.508;2023-01-29T08:02:08;0.30;99.90
38118;DHT22;23928;47.562;7.508;2023-01-29T08:04:34;0.40;99.90
38118;DHT22;23928;47.562;7.508;2023-01-29T08:06:59;0.20;99.90
38118;DHT22;23928;47.562;7.508;2023-01-29T08:09:25;-0.10;99.90
38118;DHT22;23928;47.562;7.508;2023-01-29T08:11:51;0.20;99.90
38118;DHT22;23928;47.562;7.508;2023-01-29T08:14:16;0.20;99.90
38118;DHT22;23928;47.562;7.508;2023-01-29T08:16:42;0.00;99.90
38118;DHT22;23928;47.562;7.508;2023-01-29T08:19:07;-0.10;99.90
38118;DHT22;23928;47.562;7.508;2023-01-29T08:21:33;0.00;99.90
38118;DHT22;23928;47.562;7.508;2023-01-29T08:23:58;0.00;99.90
38118;DHT22;23928;47.562;7.508;2023-01-29T08:26:24;0.10;99.90
38118;DHT22;23928;47.562;7.508;2023-01-29T08:28:51;0.20;99.90
38118;DHT22;23928;47.562;7.508;2023-01-29T08:31:18;0.10;99.90
38118;DHT22;23928;47.562;7.508;2023-01-29T08:33:47;0.20;99.90
38118;DHT22;23928;47.562;7.508;2023-01-29T08:36:13;0.20;99.90
38118;DHT22;23928;47.562;7.508;2023-01-29T08:38:39;0.30;99.90
38118;DHT22;23928;47.562;7.508;2023-01-29T08:41:05;0.40;99.90
38118;DHT22;23928;47.562;7.508;2023-01-29T08:43:30;0.20;99.90
38118;DHT22;23928;47.562;7.508;2023-01-29T08:45:56;0.20;99.90
38118;DHT22;23928;47.562;7.508;2023-01-29T08:48:22;0.10;99.90
38118;DHT22;23928;47.562;7.508;2023-01-29T08:50:48;0.20;99.90
38118;DHT22;23928;47.562;7.508;2023-01-29T08:53:13;0.30;99.90
38118;DHT22;23928;47.562;7.508;2023-01-29T08:55:39;0.10;99.90
38118;DHT22;23928;47.562;7.508;2023-01-29T08:58:10;0.40;99.90
38118;DHT22;23928;47.562;7.508;2023-01-29T09:00:35;0.30;99.90
38118;DHT22;23928;47.562;7.508;2023-01-29T09:03:01;0.10;99.90
38118;DHT22;23928;47.562;7.508;2023-01-29T09:05:28;0.30;99.90
38118;DHT22;23928;47.562;7.508;2023-01-29T09:07:56;0.30;99.90
38118;DHT22;23928;47.562;7.508;2023-01-29T09:10:22;0.40;99.90
38118;DHT22;23928;47.562;7.508;2023-01-29T09:12:47;0.60;99.90
38118;DHT22;23928;47.562;7.508;2023-01-29T09:15:13;0.50;99.90
38118;DHT22;23928;47.562;7.508;2023-01-29T09:17:38;0.60;99.90
38118;DHT22;23928;47.562;7.508;2023-01-29T09:20:06;0.50;99.90
38118;DHT22;23928;47.562;7.508;2023-01-29T09:22:32;0.40;99.90
38118;DHT22;23928;47.562;7.508;2023-01-29T09:24:57;0.50;99.90
38118;DHT22;23928;47.562;7.508;2023-01-29T09:27:23;0.40;99.90
38118;DHT22;23928;47.562;7.508;2023-01-29T09:29:49;0.50;99.90
38118;DHT22;23928;47.562;7.508;2023-01-29T09:32:15;0.60;99.90
38118;DHT22;23928;47.562;7.508;2023-01-29T09:34:40;0.50;99.90
38118;DHT22;23928;47.562;7.508;2023-01-29T09:37:06;0.80;99.90
38118;DHT22;23928;47.562;7.508;2023-01-29T09:39:32;0.70;99.90
38118;DHT22;23928;47.562;7.508;2023-01-29T09:47:19;0.70;99.90
38118;DHT22;23928;47.562;7.508;2023-01-29T09:49:55;0.80;99.90
38118;DHT22;23928;47.562;7.508;2023-01-29T09:52:33;0.80;99.90
38118;DHT22;23928;47.562;7.508;2023-01-29T09:55:11;0.80;99.90
38118;DHT22;23928;47.562;7.508;2023-01-29T09:57:46;0.70;99.90
38118;DHT22;23928;47.562;7.508;2023-01-29T10:00:22;0.80;99.90
38118;DHT22;23928;47.562;7.508;2023-01-29T10:06:20;0.80;99.90
38118;DHT22;23928;47.562;7.508;2023-01-29T10:11:48;0.90;99.90
38118;DHT22;23928;47.562;7.508;2023-01-29T10:14:42;0.90;99.90
38118;DHT22;23928;47.562;7.508;2023-01-29T10:23:05;0.90;99.90
38118;DHT22;23928;47.562;7.508;2023-01-29T10:25:34;1.00;99.90
38118;DHT22;23928;47.562;7.508;2023-01-29T10:28:01;1.10;99.90
38118;DHT22;23928;47.562;7.508;2023-01-29T10:30:36;1.30;99.90
38118;DHT22;23928;47.562;7.508;2023-01-29T10:33:06;1.30;99.90
38118;DHT22;23928;47.562;7.508;2023-01-29T10:35:40;1.50;99.90
38118;DHT22;23928;47.562;7.508;2023-01-29T10:44:09;1.70;99.90
38118;DHT22;23928;47.562;7.508;2023-01-29T10:46:47;1.70;99.90
38118;DHT22;23928;47.562;7.508;2023-01-29T10:57:54;1.90;99.90
38118;DHT22;23928;47.562;7.508;2023-01-29T11:00:26;2.00;99.90
38118;DHT22;23928;47.562;7.508;2023-01-29T11:02:52;2.20;99.90
38118;DHT22;23928;47.562;7.508;2023-01-29T11:05:31;2.30;99.90
38118;DHT22;23928;47.562;7.508;2023-01-29T11:08:09;2.30;99.90
38118;DHT22;23928;47.562;7.508;2023-01-29T11:10:42;2.30;99.90
38118;DHT22;23928;47.562;7.508;2023-01-29T11:13:13;2.30;99.90
38118;DHT22;23928;47.562;7.508;2023-01-29T11:15:39;2.60;99.90
38118;DHT22;23928;47.562;7.508;2023-01-29T11:18:10;2.50;99.90
38118;DHT22;23928;47.562;7.508;2023-01-29T11:20:44;2.50;99.90
38118;DHT22;23928;47.562;7.508;2023-01-29T11:23:26;2.90;99.90
38118;DHT22;23928;47.562;7.508;2023-01-29T11:25:53;3.00;99.90
38118;DHT22;23928;47.562;7.508;2023-01-29T11:31:01;2.60;99.90
38118;DHT22;23928;47.562;7.508;2023-01-29T11:33:27;2.60;99.90
38118;DHT22;23928;47.562;7.508;2023-01-29T11:35:53;3.10;99.90
38118;DHT22;23928;47.562;7.508;2023-01-29T11:38:27;3.20;99.90
38118;DHT22;23928;47.562;7.508;2023-01-29T11:41:05;3.20;99.90
38118;DHT22;23928;47.562;7.508;2023-01-29T11:43:31;3.40;99.90
38118;DHT22;23928;47.562;7.508;2023-01-29T11:46:00;3.30;99.90
38118;DHT22;23928;47.562;7.508;2023-01-29T11:48:42;3.20;99.90
38118;DHT22;23928;47.562;7.508;2023-01-29T11:51:10;3.40;99.90
38118;DHT22;23928;47.562;7.508;2023-01-29T11:53:39;3.60;99.90
38118;DHT22;23928;47.562;7.508;2023-01-29T11:56:19;3.20;99.90
38118;DHT22;23928;47.562;7.508;2023-01-29T11:58:47;3.20;99.90
38118;DHT22;23928;47.562;7.508;2023-01-29T12:01:17;2.80;99.90
38118;DHT22;23928;47.562;7.508;2023-01-29T12:03:51;2.80;99.90
38118;DHT22;23928;47.562;7.508;2023-01-29T12:06:23;2.90;99.90
38118;DHT22;23928;47.562;7.508;2023-01-29T12:08:55;2.70;99.90
38118;DHT22;23928;47.562;7.508;2023-01-29T12:11:28;3.00;99.90
38118;DHT22;23928;47.562;7.508;2023-01-29T12:13:59;3.30;99.90
38118;DHT22;23928;47.562;7.508;2023-01-29T12:19:38;3.00;99.90
38118;DHT22;23928;47.562;7.508;2023-01-29T12:22:23;2.80;99.90
38118;DHT22;23928;47.562;7.508;2023-01-29T12:27:54;2.90;99.90
38118;DHT22;23928;47.562;7.508;2023-01-29T12:30:37;3.20;99.90
38118;DHT22;23928;47.562;7.508;2023-01-29T12:35:55;3.00;99.90
38118;DHT22;23928;47.562;7.508;2023-01-29T12:38:24;3.10;99.90
38118;DHT22;23928;47.562;7.508;2023-01-29T12:40:54;3.30;99.90
38118;DHT22;23928;47.562;7.508;2023-01-29T12:45:57;3.10;99.90
38118;DHT22;23928;47.562;7.508;2023-01-29T12:48:31;3.00;99.90
38118;DHT22;23928;47.562;7.508;2023-01-29T12:51:24;3.00;99.90
38118;DHT22;23928;47.562;7.508;2023-01-29T12:53:55;3.00;99.90
38118;DHT22;23928;47.562;7.508;2023-01-29T12:56:41;3.00;99.90
38118;DHT22;23928;47.562;7.508;2023-01-29T12:59:30;3.00;99.90
38118;DHT22;23928;47.562;7.508;2023-01-29T13:02:23;3.10;99.90
38118;DHT22;23928;47.562;7.508;2023-01-29T13:05:02;2.90;99.90
38118;DHT22;23928;47.562;7.508;2023-01-29T13:07:37;3.00;99.90
38118;DHT22;23928;47.562;7.508;2023-01-29T13:10:16;3.10;99.90
38118;DHT22;23928;47.562;7.508;2023-01-29T13:12:57;3.20;99.90
38118;DHT22;23928;47.562;7.508;2023-01-29T13:15:38;3.20;99.90
38118;DHT22;23928;47.562;7.508;2023-01-29T13:20:47;3.30;99.90
38118;DHT22;23928;47.562;7.508;2023-01-29T13:23:21;3.20;99.90
38118;DHT22;23928;47.562;7.508;2023-01-29T13:25:52;3.20;99.90
38118;DHT22;23928;47.562;7.508;2023-01-29T13:28:21;3.40;99.90
38118;DHT22;23928;47.562;7.508;2023-01-29T13:31:18;3.40;99.90
38118;DHT22;23928;47.562;7.508;2023-01-29T13:33:57;3.60;99.90
38118;DHT22;23928;47.562;7.508;2023-01-29T13:36:27;3.80;99.90
38118;DHT22;23928;47.562;7.508;2023-01-29T13:39:00;3.70;99.90
38118;DHT22;23928;47.562;7.508;2023-01-29T13:41:38;3.80;99.90
38118;DHT22;23928;47.562;7.508;2023-01-29T13:44:16;3.90;99.90
38118;DHT22;23928;47.562;7.508;2023-01-29T13:46:48;3.80;99.90
38118;DHT22;23928;47.562;7.508;2023-01-29T13:51:56;3.90;99.90
38118;DHT22;23928;47.562;7.508;2023-01-29T13:54:24;3.90;99.90
38118;DHT22;23928;47.562;7.508;2023-01-29T14:02:23;3.90;99.90
38118;DHT22;23928;47.562;7.508;2023-01-29T14:04:49;3.80;99.90
38118;DHT22;23928;47.562;7.508;2023-01-29T14:10:17;3.60;99.90
38118;DHT22;23928;47.562;7.508;2023-01-29T14:12:43;3.50;99.90
38118;DHT22;23928;47.562;7.508;2023-01-29T14:15:22;3.70;99.90
38118;DHT22;23928;47.562;7.508;2023-01-29T14:18:02;3.60;99.90
38118;DHT22;23928;47.562;7.508;2023-01-29T14:20:36;3.80;99.90
38118;DHT22;23928;47.562;7.508;2023-01-29T14:23:04;3.50;99.90
38118;DHT22;23928;47.562;7.508;2023-01-29T14:25:32;3.60;99.90
38118;DHT22;23928;47.562;7.508;2023-01-29T14:28:00;3.70;99.90
38118;DHT22;23928;47.562;7.508;2023-01-29T14:30:30;3.70;99.90
38118;DHT22;23928;47.562;7.508;2023-01-29T14:32:56;3.70;99.90
38118;DHT22;23928;47.562;7.508;2023-01-29T14:35:24;3.70;99.90
38118;DHT22;23928;47.562;7.508;2023-01-29T14:37:58;3.90;99.90
38118;DHT22;23928;47.562;7.508;2023-01-29T14:40:26;4.00;99.90
38118;DHT22;23928;47.562;7.508;2023-01-29T14:43:04;3.80;99.90
38118;DHT22;23928;47.562;7.508;2023-01-29T14:48:03;3.80;99.90
38118;DHT22;23928;47.562;7.508;2023-01-29T14:55:51;3.70;99.90
38118;DHT22;23928;47.562;7.508;2023-01-29T14:58:31;3.70;99.90
38118;DHT22;23928;47.562;7.508;2023-01-29T15:01:00;3.40;99.90
38118;DHT22;23928;47.562;7.508;2023-01-29T15:03:45;3.40;99.90
38118;DHT22;23928;47.562;7.508;2023-01-29T15:09:47;3.60;99.90
38118;DHT22;23928;47.562;7.508;2023-01-29T15:15:20;3.30;99.90
38118;DHT22;23928;47.562;7.508;2023-01-29T15:18:00;3.30;99.90
38118;DHT22;23928;47.562;7.508;2023-01-29T15:20:33;3.40;99.90
38118;DHT22;23928;47.562;7.508;2023-01-29T15:23:00;3.40;99.90
38118;DHT22;23928;47.562;7.508;2023-01-29T15:25:36;3.20;99.90
38118;DHT22;23928;47.562;7.508;2023-01-29T15:28:11;3.20;99.90
38118;DHT22;23928;47.562;7.508;2023-01-29T15:30:37;3.30;99.90
38118;DHT22;23928;47.562;7.508;2023-01-29T15:33:03;3.30;99.90
38118;DHT22;23928;47.562;7.508;2023-01-29T15:35:37;3.20;99.90
38118;DHT22;23928;47.562;7.508;2023-01-29T15:38:13;3.10;99.90
38118;DHT22;23928;47.562;7.508;2023-01-29T15:40:39;3.20;99.90
38118;DHT22;23928;47.562;7.508;2023-01-29T15:43:23;3.20;99.90
38118;DHT22;23928;47.562;7.508;2023-01-29T15:45:50;3.20;99.90
38118;DHT22;23928;47.562;7.508;2023-01-29T15:48:25;3.20;99.90
38118;DHT22;23928;47.562;7.508;2023-01-29T15:50:53;3.10;99.90
38118;DHT22;23928;47.562;7.508;2023-01-29T15:53:24;3.10;99.90
38118;DHT22;23928;47.562;7.508;2023-01-29T15:55:51;3.00;99.90
38118;DHT22;23928;47.562;7.508;2023-01-29T15:58:23;3.00;99.90
38118;DHT22;23928;47.562;7.508;2023-01-29T16:00:55;2.80;99.90
38118;DHT22;23928;47.562;7.508;2023-01-29T16:03:22;2.70;99.90
38118;DHT22;23928;47.562;7.508;2023-01-29T16:05:50;2.60;99.90
38118;DHT22;23928;47.562;7.508;2023-01-29T16:08:17;2.60;99.90
38118;DHT22;23928;47.562;7.508;2023-01-29T16:10:43;2.50;99.90
38118;DHT22;23928;47.562;7.508;2023-01-29T16:13:26;2.40;99.90
38118;DHT22;23928;47.562;7.508;2023-01-29T16:16:01;2.40;99.90
38118;DHT22;23928;47.562;7.508;2023-01-29T16:18:35;2.40;99.90
38118;DHT22;23928;47.562;7.508;2023-01-29T16:21:14;2.30;99.90
38118;DHT22;23928;47.562;7.508;2023-01-29T16:23:44;2.20;99.90
38118;DHT22;23928;47.562;7.508;2023-01-29T16:26:16;2.00;99.90
38118;DHT22;23928;47.562;7.508;2023-01-29T16:28:44;1.90;99.90
38118;DHT22;23928;47.562;7.508;2023-01-29T16:31:10;1.90;99.90
38118;DHT22;23928;47.562;7.508;2023-01-29T16:33:40;1.70;99.90
38118;DHT22;23928;47.562;7.508;2023-01-29T16:36:15;1.70;99.90
38118;DHT22;23928;47.562;7.508;2023-01-29T16:38:46;1.60;99.90
38118;DHT22;23928;47.562;7.508;2023-01-29T16:46:26;1.40;99.90
38118;DHT22;23928;47.562;7.508;2023-01-29T16:48:55;1.30;99.90
38118;DHT22;23928;47.562;7.508;2023-01-29T16:51:36;1.30;99.90
38118;DHT22;23928;47.562;7.508;2023-01-29T16:54:13;1.30;99.90
38118;DHT22;23928;47.562;7.508;2023-01-29T16:56:44;1.30;99.90
38118;DHT22;23928;47.562;7.508;2023-01-29T17:01:52;1.40;99.90
38118;DHT22;23928;47.562;7.508;2023-01-29T17:04:18;1.20;99.90
38118;DHT22;23928;47.562;7.508;2023-01-29T17:06:53;1.00;99.90
38118;DHT22;23928;47.562;7.508;2023-01-29T17:09:26;0.80;99.90
38118;DHT22;23928;47.562;7.508;2023-01-29T17:11:55;0.70;99.90
38118;DHT22;23928;47.562;7.508;2023-01-29T17:14:23;0.60;99.90
38118;DHT22;23928;47.562;7.508;2023-01-29T17:16:55;0.70;99.90
38118;DHT22;23928;47.562;7.508;2023-01-29T17:19:21;0.70;99.90
38118;DHT22;23928;47.562;7.508;2023-01-29T17:21:49;0.70;99.90
38118;DHT22;23928;47.562;7.508;2023-01-29T17:24:15;0.70;99.90
38118;DHT22;23928;47.562;7.508;2023-01-29T17:26:41;0.60;99.90
38118;DHT22;23928;47.562;7.508;2023-01-29T17:29:14;0.60;99.90
38118;DHT22;23928;47.562;7.508;2023-01-29T17:31:42;0.60;99.90
38118;DHT22;23928;47.562;7.508;2023-01-29T17:34:12;0.50;99.90
38118;DHT22;23928;47.562;7.508;2023-01-29T17:36:39;0.50;99.90
38118;DHT22;23928;47.562;7.508;2023-01-29T17:39:20;0.40;99.90
38118;DHT22;23928;47.562;7.508;2023-01-29T17:41:51;0.40;99.90
38118;DHT22;23928;47.562;7.508;2023-01-29T17:44:17;0.30;99.90
38118;DHT22;23928;47.562;7.508;2023-01-29T17:46:43;0.30;99.90
38118;DHT22;23928;47.562;7.508;2023-01-29T17:49:27;0.20;99.90
38118;DHT22;23928;47.562;7.508;2023-01-29T17:51:55;0.20;99.90
38118;DHT22;23928;47.562;7.508;2023-01-29T17:54:21;0.20;99.90
38118;DHT22;23928;47.562;7.508;2023-01-29T17:56:48;0.20;99.90
38118;DHT22;23928;47.562;7.508;2023-01-29T17:59:16;0.20;99.90
38118;DHT22;23928;47.562;7.508;2023-01-29T18:01:42;0.20;99.90
38118;DHT22;23928;47.562;7.508;2023-01-29T18:04:08;0.30;99.90
38118;DHT22;23928;47.562;7.508;2023-01-29T18:06:34;0.20;99.90
38118;DHT22;23928;47.562;7.508;2023-01-29T18:09:00;0.10;99.90
38118;DHT22;23928;47.562;7.508;2023-01-29T18:11:26;0.00;99.90
38118;DHT22;23928;47.562;7.508;2023-01-29T18:13:53;0.00;99.90
38118;DHT22;23928;47.562;7.508;2023-01-29T18:16:19;0.00;99.90
38118;DHT22;23928;47.562;7.508;2023-01-29T18:18:47;-0.10;99.90
38118;DHT22;23928;47.562;7.508;2023-01-29T18:21:12;-0.10;99.90
38118;DHT22;23928;47.562;7.508;2023-01-29T18:23:38;-0.10;99.90